Skip to main content.
 TIME   TEMPERATURE   WINDSPEED   DIRECTION   HUMIDITY   BAROMETER   RAINFALL 
7:55 16.0°C (60.8°F) 3.7 kmh (2.3 mph) N 77% 1027.1hPa (30.33 inHg) 0.0mm (0.00 in.)
6:55 18.0°C (64.4 °F) 3.7 kmh (2.3 mph) ENE 67% 1026.1hPa (30.30 inHg) 0.0mm (0.00 in.)
5:55 19.0°C (66.2 °F) 7.4 kmh (4.6 mph) E 68% 1026.1hPa (30.30 inHg) 0.0mm (0.00 in.)
4:55 20.0°C (68.0 °F) 9.3 kmh (5.8 mph) E 64% 1026.1hPa (30.30 inHg) 0.0mm (0.00 in.)
3:55 21.0°C (69.8 °F) 13.0 kmh (8.1 mph) E 60% 1026.1hPa (30.30 inHg) 0.0mm (0.00 in.)
2:55 21.0°C (69.8 °F) 16.7 kmh (10.4 mph) E 60% 1026.1hPa (30.30 inHg) 0.0mm (0.00 in.)
1:55 21.0°C (69.8 °F) 18.5 kmh (11.5 mph) E 56% 1026.1hPa (30.30 inHg) 0.0mm (0.00 in.)
12:55 21.0°C (69.8 °F) 20.4 kmh (12.7 mph) E 60% 1027.1hPa (30.33 inHg) 0.0mm (0.00 in.)
11:55 21.0°C (69.8 °F) 14.8 kmh (9.2 mph) E 60% 1027.1hPa (30.33 inHg) 0.0mm (0.00 in.)
10:55 21.0°C (69.8 °F) 20.4 kmh (12.7 mph) E 60% 1028.1hPa (30.36 inHg) 0.0mm (0.00 in.)
9:55 20.0°C (68.0 °F) 22.2 kmh (13.8 mph) E 64% 1027.1hPa (30.33 inHg) 0.0mm (0.00 in.)
8:55 19.0°C (66.2 °F) 13.0 kmh (8.1 mph) E 68% 1027.1hPa (30.33 inHg) 0.0mm (0.00 in.)
7:54 17.0°C (62.6 °F) 9.3 kmh (5.8 mph) E 77% 1027.1hPa (30.33 inHg) 0.0mm (0.00 in.)
6:54 17.0°C (62.6 °F) 11.1 kmh (6.9 mph) E 77% 1026.1hPa (30.30 inHg) 0.0mm (0.00 in.)
5:54 17.0°C (62.6 °F) 9.3 kmh (5.8 mph) E 82% 1026.1hPa (30.30 inHg) 0.0mm (0.00 in.)
4:54 18.0°C (64.4 °F) 11.1 kmh (6.9 mph) E 77% 1026.1hPa (30.30 inHg) 0.0mm (0.00 in.)
3:54 18.0°C (64.4 °F) 9.3 kmh (5.8 mph) E 77% 1026.1hPa (30.30 inHg) 0.0mm (0.00 in.)
2:54 18.0°C (64.4 °F) 9.3 kmh (5.8 mph) E 77% 1026.1hPa (30.30 inHg) 0.0mm (0.00 in.)
1:54 18.0°C (64.4 °F) 9.3 kmh (5.8 mph) E 82% 1025.1hPa (30.27 inHg) 0.0mm (0.00 in.)
12:54 18.0°C (64.4 °F) 14.8 kmh (9.2 mph) E 77% 1025.1hPa (30.27 inHg) 0.0mm (0.00 in.)
11:54 18.0°C (64.4 °F) 13.0 kmh (8.1 mph) ESE 77% 1025.1hPa (30.27 inHg) 0.0mm (0.00 in.)
10:54 19.0°C (66.2 °F) 18.5 kmh (11.5 mph) ESE 77% 1025.1hPa (30.27 inHg) 0.0mm (0.00 in.)
9:54 19.0°C (66.2 °F) 16.7 kmh (10.4 mph) ESE 77% 1025.1hPa (30.27 inHg) 0.0mm (0.00 in.)
8:48 19.0°C (66.2 °F) 14.8 kmh (9.2 mph) N 77% 1025.1hPa (30.27 inHg) 0.0mm (0.00 in.)